Home   Weather   France   Le Havre   Past weeks
Flag for France

Past Weather in Le Havre, Seine-Maritime, France — Yesterday and Last 2 Weeks

Currently: 36 °F. Clear. (Weather station: La Heve, France). See more current weather

Past Weather in Le Havre — Graph

°F

Le Havre Temperature Yesterday

Maximum temperature yesterday: 48 °F (at 3:00 pm)
Minimum temperature yesterday: 34 °F (at 4:00 am)
Average temperature yesterday: 40 °F

High & Low Weather Summary for the Past Weeks

 TemperatureHumidityPressure
High50 °F (Feb 1, 3:00 pm)100% (Jan 25, 10:30 pm)30.83 "Hg (Jan 25, 10:30 pm)
Low32 °F (Jan 24, 11:00 pm)53% (Feb 6, 5:00 pm)30.24 "Hg (Jan 26, 2:00 am)
Average42 °F87%30.50 "Hg
* Reported Jan 23 8:00 pm — Feb 7 8:30 pm, Le Havre. Weather by CustomWeather, © 2023

Note: Actual official high and low records may vary slightly from our data, if they occured in-between our weather recording intervals... More about our weather records

Le Havre Weather History for the Previous 24 Hours

Scroll right to see more
 ConditionsComfort  
Time TempWeatherWind HumidityBarometerVisibility
8:30 pm
Tue, Feb 7
36 °FClear.7 mph81%30.63 "Hg6 mi
8:00 pm36 °FClear.7 mph87%30.63 "Hg6 mi
7:00 pm37 °FClear.7 mph81%30.63 "Hg10 mi
6:30 pm37 °FClear.6 mph81%30.63 "Hg10 mi
6:00 pm39 °FSunny.7 mph70%30.60 "Hg10 mi
5:30 pm41 °FSunny.6 mph70%30.60 "Hg10 mi
5:00 pm43 °FSunny.9 mph66%30.60 "Hg10 mi
4:30 pm43 °FPassing clouds.10 mph66%30.60 "HgN/A
4:00 pm45 °FPassing clouds.9 mph57%30.60 "HgN/A
3:30 pm45 °FSunny.12 mph57%30.60 "Hg10 mi
3:00 pm45 °FPassing clouds.9 mph57%30.60 "HgN/A
2:30 pm43 °FPassing clouds.12 mph61%30.60 "HgN/A
2:00 pm43 °FSunny.12 mph61%30.60 "Hg10 mi
1:00 pm43 °FSunny.9 mph66%30.63 "Hg10 mi
12:30 pm41 °FPassing clouds.8 mph66%30.63 "HgN/A
12:00 pm39 °FSunny.12 mph65%30.63 "Hg10 mi
11:30 am39 °FSunny.10 mph70%30.63 "Hg10 mi
11:00 am37 °FSunny.12 mph75%30.63 "Hg10 mi
10:30 am37 °FSunny.7 mph81%30.63 "Hg10 mi
10:00 am36 °FSunny.8 mph81%30.63 "Hg10 mi
9:30 am34 °FClear.7 mph87%30.63 "Hg5 mi
9:00 am32 °FClear.7 mph93%30.63 "Hg6 mi
8:30 am32 °FClear.8 mph93%30.63 "Hg6 mi
8:00 am32 °FClear.8 mph93%30.63 "Hg10 mi
7:00 am32 °FClear.8 mph93%30.60 "Hg10 mi
6:30 am32 °FClear.6 mph93%30.60 "Hg10 mi
6:00 am32 °FClear.7 mph93%30.60 "Hg10 mi
5:30 am32 °FClear.7 mph93%30.60 "Hg10 mi
5:00 am32 °FClear.7 mph93%30.60 "Hg10 mi
4:30 am34 °FClear.6 mph87%30.60 "Hg10 mi
4:00 am34 °FClear.7 mph87%30.60 "Hg10 mi
3:30 am34 °FClear.7 mph87%30.60 "Hg6 mi
3:00 am34 °FClear.7 mph93%30.60 "Hg5 mi
2:30 am34 °FClear.7 mph93%30.60 "Hg4 mi
2:00 am34 °FClear.8 mph93%30.60 "Hg4 mi
12:30 am36 °FClear.9 mph93%30.63 "Hg6 mi
12:00 am36 °FClear.8 mph93%30.63 "Hg6 mi
11:00 pm
Mon, Feb 6
36 °FClear.7 mph93%30.63 "Hg6 mi
10:30 pm37 °FClear.9 mph87%30.63 "Hg5 mi
10:00 pm37 °FClear.8 mph87%30.66 "Hg5 mi
Weather by CustomWeather, © 2023

See weather overview